Time;durP1;ratioP1;P1;durP2;ratioP2;P2;SDS_P1;SDS_P2;PMS_P1;PMS_P2;Temp;Humidity;BMP_temperature;BMP_pressure;BME280_temperature;BME280_humidity;BME280_pressure;Samples;Min_cycle;Max_cycle;Signal;HPM_P1;HPM_P2
2024/03/15 00:01:33;;;;;;;26.97;12.40;;;;;;;5.16;60.76;100627.28;1780618;79;21066;-71
2024/03/15 00:04:03;;;;;;;27.40;11.68;;;;;;;5.16;60.94;100628.64;1775768;80;21043;-71
2024/03/15 00:06:33;;;;;;;22.37;11.43;;;;;;;5.15;61.02;100628.29;1776191;80;21043;-71
2024/03/15 00:09:04;;;;;;;23.62;10.88;;;;;;;5.15;61.10;100622.86;1775233;81;21066;-72
2024/03/15 00:11:33;;;;;;;25.05;10.43;;;;;;;5.13;61.21;100619.45;1776551;80;21030;-71
2024/03/15 00:14:02;;;;;;;23.02;11.48;;;;;;;5.13;61.29;100624.88;1775315;80;21066;-71
2024/03/15 00:16:30;;;;;;;25.20;10.95;;;;;;;5.11;61.41;100624.19;1776042;80;21494;-72
2024/03/15 00:19:02;;;;;;;22.50;11.12;;;;;;;5.10;61.51;100621.13;1775024;80;21559;-71
2024/03/15 00:21:32;;;;;;;23.10;11.03;;;;;;;5.10;61.63;100619.25;1749251;81;21034;-71
2024/03/15 00:24:01;;;;;;;24.67;11.57;;;;;;;5.11;61.69;100620.11;1776195;80;21062;-71
2024/03/15 00:26:32;;;;;;;23.98;11.48;;;;;;;5.11;61.79;100611.96;1775591;81;21023;-71
2024/03/15 00:29:03;;;;;;;21.10;10.28;;;;;;;5.10;61.79;100612.97;1775267;80;21062;-71
2024/03/15 00:31:32;;;;;;;18.73;9.33;;;;;;;5.08;61.74;100611.77;1768998;80;21036;-72
2024/03/15 00:34:03;;;;;;;22.22;10.95;;;;;;;5.07;61.68;100607.35;1755906;81;21059;-71
2024/03/15 00:36:35;;;;;;;17.87;9.68;;;;;;;5.05;61.68;100608.52;1767351;81;21007;-71
2024/03/15 00:39:05;;;;;;;20.97;10.13;;;;;;;5.04;61.73;100606.81;1767447;80;21015;-71
2024/03/15 00:41:34;;;;;;;16.10;9.13;;;;;;;5.04;61.78;100606.81;1770069;80;21063;-71
2024/03/15 00:44:05;;;;;;;15.65;9.15;;;;;;;5.00;61.81;100604.91;1773833;79;21462;-70
2024/03/15 00:46:34;;;;;;;17.12;8.95;;;;;;;4.97;61.86;100609.30;1770351;80;21087;-71
2024/03/15 00:49:03;;;;;;;19.73;9.63;;;;;;;4.96;61.99;100606.23;1776414;80;21034;-71
2024/03/15 00:51:32;;;;;;;19.25;9.20;;;;;;;4.96;62.06;100604.03;1772663;80;21039;-71
2024/03/15 00:54:03;;;;;;;21.77;10.08;;;;;;;4.90;62.06;100606.86;1775045;81;21467;-70
2024/03/15 00:56:32;;;;;;;19.75;10.23;;;;;;;4.87;62.03;100607.68;1774192;80;21039;-72
2024/03/15 00:59:01;;;;;;;23.30;9.55;;;;;;;4.83;62.18;100603.07;1775068;80;21006;-71
2024/03/15 01:01:32;;;;;;;16.60;9.00;;;;;;;4.82;62.41;100607.30;1772015;79;21487;-72
2024/03/15 01:04:01;;;;;;;19.27;9.85;;;;;;;4.82;62.40;100605.94;1775409;79;21043;-69
2024/03/15 01:06:29;;;;;;;19.23;9.83;;;;;;;4.80;62.51;100605.24;1775116;80;21043;-71
2024/03/15 01:08:58;;;;;;;21.05;9.58;;;;;;;4.80;62.54;100602.02;1776753;79;21070;-70
2024/03/15 01:11:28;;;;;;;18.73;9.25;;;;;;;4.76;62.58;100598.77;1778304;80;21034;-71
2024/03/15 01:13:58;;;;;;;18.27;9.60;;;;;;;4.75;62.76;100607.06;1773614;79;21019;-70
2024/03/15 01:16:27;;;;;;;17.60;9.15;;;;;;;4.74;62.89;100609.43;1779566;80;21089;-69
2024/03/15 01:18:57;;;;;;;20.43;10.25;;;;;;;4.72;62.95;100611.45;1776879;80;21486;-72
2024/03/15 01:21:26;;;;;;;19.92;10.05;;;;;;;4.72;63.01;100610.09;1771588;81;21082;-69
2024/03/15 01:23:56;;;;;;;21.05;10.35;;;;;;;4.68;63.13;100604.12;1759585;80;21042;-70
2024/03/15 01:26:24;;;;;;;21.23;10.63;;;;;;;4.65;63.33;100606.29;1771666;80;21451;-69
2024/03/15 01:28:54;;;;;;;22.20;10.03;;;;;;;4.66;63.50;100613.42;1775101;80;21027;-70
2024/03/15 01:31:24;;;;;;;18.57;9.75;;;;;;;4.67;63.58;100618.70;1787295;79;21022;-71
2024/03/15 01:33:55;;;;;;;17.75;9.95;;;;;;;4.67;63.60;100610.55;1769658;80;21038;-70
2024/03/15 01:36:25;;;;;;;19.02;9.65;;;;;;;4.67;63.64;100613.27;1768421;80;21015;-69
2024/03/15 01:38:55;;;;;;;19.90;10.32;;;;;;;4.65;63.84;100615.28;1775476;79;21497;-69
2024/03/15 01:41:24;;;;;;;22.13;10.20;;;;;;;4.64;63.99;100612.22;1789052;80;21074;-71
2024/03/15 01:43:53;;;;;;;24.12;11.10;;;;;;;4.63;64.25;100607.80;1777043;80;21058;-71
2024/03/15 01:46:23;;;;;;;23.20;10.82;;;;;;;4.65;64.31;100614.43;1774814;79;21027;-70
2024/03/15 01:48:53;;;;;;;21.52;9.98;;;;;;;4.62;64.52;100614.23;1777275;80;21086;-71
2024/03/15 01:51:22;;;;;;;20.55;11.22;;;;;;;4.60;64.79;100618.11;1776848;79;21035;-70
2024/03/15 01:53:52;;;;;;;27.90;11.88;;;;;;;4.58;65.00;100621.48;1767118;80;21102;-71
2024/03/15 01:56:22;;;;;;;25.35;11.30;;;;;;;4.57;65.43;100612.48;1768429;79;21042;-70
2024/03/15 01:58:51;;;;;;;25.08;11.33;;;;;;;4.58;65.63;100613.34;1774979;80;21074;-70
2024/03/15 02:01:21;;;;;;;24.57;12.70;;;;;;;4.60;65.77;100621.67;1770197;80;21102;-69
2024/03/15 02:03:50;;;;;;;28.23;13.20;;;;;;;4.63;66.00;100621.37;1771548;79;21093;-70
2024/03/15 02:06:21;;;;;;;26.45;12.28;;;;;;;4.64;66.20;100623.08;1781392;79;21034;-71
2024/03/15 02:08:55;;;;;;;26.17;13.43;;;;;;;4.67;66.37;100632.27;1775027;80;21047;-69
2024/03/15 02:11:25;;;;;;;30.05;13.90;;;;;;;4.71;66.37;100634.17;1751444;79;21136;-69
2024/03/15 02:13:54;;;;;;;28.30;14.58;;;;;;;4.70;66.40;100631.95;1772563;80;21067;-69
2024/03/15 02:16:26;;;;;;;30.57;15.18;;;;;;;4.70;66.50;100629.75;1774759;79;21007;-71
2024/03/15 02:18:55;;;;;;;29.65;14.80;;;;;;;4.70;66.91;100638.74;1777336;80;21066;-71
2024/03/15 02:21:24;;;;;;;27.65;14.87;;;;;;;4.72;67.16;100637.23;1775652;81;20999;-70
2024/03/15 02:23:54;;;;;;;31.00;14.38;;;;;;;4.72;67.30;100635.37;1775030;79;21481;-70
2024/03/15 02:26:26;;;;;;;27.82;15.03;;;;;;;4.71;67.49;100642.31;1775225;79;21499;-69
2024/03/15 02:28:54;;;;;;;27.90;14.87;;;;;;;4.69;67.64;100642.47;1775291;80;21035;-72
2024/03/15 02:31:25;;;;;;;29.20;14.25;;;;;;;4.68;67.91;100633.97;1774638;81;21514;-71
2024/03/15 02:33:54;;;;;;;25.27;13.35;;;;;;;4.70;68.09;100641.96;1777601;80;20998;-71
2024/03/15 02:36:25;;;;;;;30.23;13.98;;;;;;;4.70;68.15;100644.17;1780235;80;21022;-72
2024/03/15 02:38:54;;;;;;;32.17;16.17;;;;;;;4.73;68.23;100649.29;1775989;80;21023;-70
2024/03/15 02:41:23;;;;;;;29.50;15.38;;;;;;;4.71;68.43;100648.59;1775090;80;21142;-70
2024/03/15 02:43:53;;;;;;;30.68;15.60;;;;;;;4.70;68.76;100645.53;1776076;79;21027;-70
2024/03/15 02:46:22;;;;;;;31.12;15.68;;;;;;;4.69;68.94;100649.25;1774797;80;21071;-71
2024/03/15 02:48:51;;;;;;;32.42;16.77;;;;;;;4.68;69.20;100650.26;1772358;79;21015;-70
2024/03/15 02:51:25;;;;;;;28.70;15.83;;;;;;;4.69;69.37;100653.32;1767778;80;21070;-70
2024/03/15 02:53:52;;;;;;;35.92;15.98;;;;;;;4.69;69.58;100647.04;1777201;79;21038;-69
2024/03/15 02:56:21;;;;;;;31.07;17.23;;;;;;;4.67;69.83;100647.19;1778576;80;21071;-69
2024/03/15 02:58:51;;;;;;;33.02;17.23;;;;;;;4.68;70.07;100652.97;1747470;81;21016;-69
2024/03/15 03:01:20;;;;;;;32.40;17.30;;;;;;;4.69;70.22;100656.03;1775249;80;21062;-71
2024/03/15 03:03:49;;;;;;;30.77;15.83;;;;;;;4.69;70.39;100651.96;1767347;80;21508;-71
2024/03/15 03:06:18;;;;;;;33.13;15.78;;;;;;;4.70;70.56;100655.03;1775212;79;21044;-70
2024/03/15 03:08:47;;;;;;;30.72;16.25;;;;;;;4.72;70.71;100655.73;1774862;79;21074;-70
2024/03/15 03:11:17;;;;;;;30.90;17.27;;;;;;;4.75;70.81;100656.77;1775580;80;21050;-69
2024/03/15 03:13:46;;;;;;;32.20;16.85;;;;;;;4.74;70.90;100653.71;1775205;79;21089;-70
2024/03/15 03:16:20;;;;;;;36.45;17.65;;;;;;;4.70;71.00;100655.03;1771718;80;21097;-70
2024/03/15 03:18:49;;;;;;;32.65;16.32;;;;;;;4.68;71.18;100654.83;1782424;80;21039;-70
2024/03/15 03:21:18;;;;;;;39.65;18.70;;;;;;;4.69;71.36;100656.03;1767408;80;21035;-70
2024/03/15 03:23:48;;;;;;;35.50;18.40;;;;;;;4.71;71.39;100651.30;1766797;81;21056;-68
2024/03/15 03:26:16;;;;;;;32.55;17.87;;;;;;;4.72;71.53;100650.30;1777104;80;21102;-70
2024/03/15 03:28:46;;;;;;;33.53;17.00;;;;;;;4.74;71.64;100657.78;1783912;79;21451;-69
2024/03/15 03:31:15;;;;;;;38.75;17.30;;;;;;;4.74;71.73;100655.07;1775543;80;21043;-70
2024/03/15 03:33:44;;;;;;;33.60;16.70;;;;;;;4.73;71.81;100655.22;1747322;79;21050;-70
2024/03/15 03:36:12;;;;;;;36.45;16.62;;;;;;;4.74;71.96;100653.71;1787686;79;21512;-69
2024/03/15 03:38:42;;;;;;;36.23;16.80;;;;;;;4.77;72.07;100657.98;1756418;79;21074;-70
2024/03/15 03:41:11;;;;;;;38.40;17.95;;;;;;;4.76;72.16;100649.48;1775227;79;21486;-68
2024/03/15 03:43:43;;;;;;;35.63;17.62;;;;;;;4.73;72.33;100653.36;1791638;79;21066;-71
2024/03/15 03:46:16;;;;;;;29.20;17.00;;;;;;;4.73;72.46;100654.72;1776134;79;21054;-70
2024/03/15 03:48:45;;;;;;;35.95;18.20;;;;;;;4.76;72.54;100654.41;1776811;79;21102;-69
2024/03/15 03:51:14;;;;;;;33.63;18.10;;;;;;;4.77;72.64;100656.12;1776587;79;21062;-71
2024/03/15 03:53:46;;;;;;;34.03;17.80;;;;;;;4.79;72.73;100661.39;1769815;79;21467;-71
2024/03/15 03:56:16;;;;;;;33.45;17.35;;;;;;;4.81;72.83;100663.95;1766840;80;21074;-69
2024/03/15 03:58:46;;;;;;;30.65;16.95;;;;;;;4.80;73.02;100669.89;1767566;80;21043;-71
2024/03/15 04:01:16;;;;;;;36.65;18.12;;;;;;;4.81;73.10;100667.52;1768892;80;20995;-69
2024/03/15 04:03:50;;;;;;;44.25;21.68;;;;;;;4.81;73.04;100667.52;1767399;80;21067;-70
2024/03/15 04:06:20;;;;;;;44.23;23.70;;;;;;;4.82;73.10;100671.09;1769066;80;21023;-71
2024/03/15 04:08:49;;;;;;;41.42;20.25;;;;;;;4.83;73.25;100674.16;1774249;79;21035;-70
2024/03/15 04:11:18;;;;;;;40.15;20.95;;;;;;;4.83;73.36;100676.87;1767608;80;21051;-71
2024/03/15 04:13:47;;;;;;;41.70;20.50;;;;;;;4.82;73.35;100675.16;1774091;79;21031;-71
2024/03/15 04:16:16;;;;;;;36.80;18.85;;;;;;;4.77;73.31;100678.34;1772880;79;21023;-71
2024/03/15 04:18:46;;;;;;;39.45;19.95;;;;;;;4.74;73.32;100675.93;1768291;80;21027;-71
2024/03/15 04:21:16;;;;;;;35.98;18.32;;;;;;;4.71;73.33;100675.73;1781688;80;21010;-71
2024/03/15 04:23:46;;;;;;;37.73;17.50;;;;;;;4.69;73.45;100677.75;1779208;80;21078;-70
2024/03/15 04:26:15;;;;;;;36.00;17.07;;;;;;;4.66;73.50;100673.98;1773066;80;21738;-69
2024/03/15 04:28:44;;;;;;;36.80;18.50;;;;;;;4.65;73.64;100679.06;1778146;80;20995;-70
2024/03/15 04:31:15;;;;;;;34.03;18.35;;;;;;;4.67;73.70;100678.91;1775048;81;21439;-69
2024/03/15 04:33:44;;;;;;;34.73;17.92;;;;;;;4.71;73.83;100683.02;1775828;81;21039;-71
2024/03/15 04:36:15;;;;;;;40.75;19.27;;;;;;;4.71;73.86;100676.23;1776705;79;21466;-70
2024/03/15 04:38:44;;;;;;;37.35;19.45;;;;;;;4.70;73.98;100679.45;1776598;79;21034;-71
2024/03/15 04:41:15;;;;;;;38.15;19.40;;;;;;;4.70;74.12;100678.60;1780668;79;21101;-70
2024/03/15 04:43:43;;;;;;;34.80;18.32;;;;;;;4.70;74.24;100687.59;1775166;80;21019;-71
2024/03/15 04:46:13;;;;;;;34.48;18.50;;;;;;;4.71;74.41;100686.59;1775441;81;21518;-69
2024/03/15 04:48:43;;;;;;;35.00;18.82;;;;;;;4.70;74.49;100688.95;1775020;81;21039;-71
2024/03/15 04:51:12;;;;;;;44.13;19.92;;;;;;;4.70;74.64;100682.67;1776931;79;21023;-70
2024/03/15 04:53:41;;;;;;;34.83;18.65;;;;;;;4.68;74.69;100681.47;1776701;80;21540;-70
2024/03/15 04:56:10;;;;;;;37.55;17.73;;;;;;;4.67;74.84;100681.12;1776751;80;21034;-71
2024/03/15 04:58:41;;;;;;;40.48;19.12;;;;;;;4.69;75.07;100679.61;1772257;80;21564;-70
2024/03/15 05:01:11;;;;;;;38.42;20.70;;;;;;;4.71;75.32;100682.52;1780537;80;21454;-70
2024/03/15 05:03:41;;;;;;;41.08;20.48;;;;;;;4.71;75.63;100680.31;1772879;80;21214;-69
2024/03/15 05:06:12;;;;;;;37.35;20.30;;;;;;;4.70;75.96;100679.95;1774328;81;21095;-71
2024/03/15 05:08:43;;;;;;;35.08;19.05;;;;;;;4.72;76.24;100683.38;1774871;80;21062;-70
2024/03/15 05:11:15;;;;;;;35.25;18.57;;;;;;;4.73;76.52;100683.22;1748997;81;21047;-70
2024/03/15 05:13:44;;;;;;;35.17;18.40;;;;;;;4.74;76.76;100683.56;1776418;80;21007;-69
2024/03/15 05:16:14;;;;;;;39.80;18.40;;;;;;;4.76;77.04;100685.63;1775230;80;21054;-71
2024/03/15 05:18:43;;;;;;;28.15;16.37;;;;;;;4.77;77.31;100685.13;1774921;80;21027;-69
2024/03/15 05:21:13;;;;;;;29.63;16.07;;;;;;;4.79;77.61;100693.97;1774860;79;21086;-70
2024/03/15 05:23:42;;;;;;;27.52;14.45;;;;;;;4.81;77.80;100702.81;1775249;79;21051;-71
2024/03/15 05:26:12;;;;;;;28.95;15.03;;;;;;;4.81;77.80;100701.96;1773699;80;21524;-70
2024/03/15 05:28:42;;;;;;;26.12;14.73;;;;;;;4.82;77.90;100713.17;1775334;79;21031;-69
2024/03/15 05:31:10;;;;;;;30.15;16.12;;;;;;;4.83;77.73;100714.87;1774880;80;21035;-70
2024/03/15 05:33:39;;;;;;;31.42;16.60;;;;;;;4.82;77.80;100720.80;1774897;80;21054;-69
2024/03/15 05:36:08;;;;;;;28.12;14.30;;;;;;;4.83;77.85;100723.02;1776944;80;21059;-71
2024/03/15 05:38:38;;;;;;;29.30;14.53;;;;;;;4.83;77.80;100720.30;1767329;80;21089;-71
2024/03/15 05:41:07;;;;;;;26.85;13.83;;;;;;;4.86;77.71;100716.78;1781574;80;21070;-70
2024/03/15 05:43:36;;;;;;;27.80;14.78;;;;;;;4.89;77.72;100727.84;1775291;79;21035;-70
2024/03/15 05:46:05;;;;;;;29.27;15.53;;;;;;;4.93;77.81;100726.52;1775070;80;21137;-70
2024/03/15 05:48:34;;;;;;;31.68;15.45;;;;;;;4.91;77.76;100721.25;1774959;80;21475;-71
2024/03/15 05:51:03;;;;;;;30.52;15.48;;;;;;;4.89;77.78;100723.27;1775863;79;21458;-71
2024/03/15 05:53:32;;;;;;;27.05;15.10;;;;;;;4.84;77.90;100733.73;1775132;80;21051;-70
2024/03/15 05:56:01;;;;;;;29.02;15.50;;;;;;;4.83;78.14;100726.59;1773111;79;21055;-70
2024/03/15 05:58:30;;;;;;;26.25;15.45;;;;;;;4.82;78.48;100730.81;1770791;80;21075;-72
2024/03/15 06:01:03;;;;;;;29.70;14.83;;;;;;;4.84;78.70;100745.09;1767431;81;21016;-70
2024/03/15 06:03:33;;;;;;;30.32;15.45;;;;;;;4.90;78.94;100734.47;1775106;79;21039;-70
2024/03/15 06:06:08;;;;;;;28.92;15.10;;;;;;;4.92;79.15;100733.81;1777389;80;21475;-70
2024/03/15 06:08:33;;;;;;;32.60;17.27;;;;;;;4.93;79.38;100736.02;1774656;80;21055;-71
2024/03/15 06:11:02;;;;;;;28.27;16.32;;;;;;;4.92;79.58;100729.73;1767412;80;21043;-71
2024/03/15 06:13:31;;;;;;;27.22;15.45;;;;;;;4.95;79.89;100738.09;1777778;80;21477;-70
2024/03/15 06:16:01;;;;;;;28.00;15.38;;;;;;;4.94;80.04;100739.09;1775035;81;21073;-70
2024/03/15 06:18:30;;;;;;;29.63;15.53;;;;;;;4.95;80.21;100738.94;1774946;79;21070;-71
2024/03/15 06:20:58;;;;;;;31.12;14.30;;;;;;;4.97;80.26;100733.35;1768193;80;21055;-70
2024/03/15 06:23:28;;;;;;;25.45;14.85;;;;;;;4.99;80.31;100740.84;1776192;80;21082;-70
2024/03/15 06:25:57;;;;;;;29.95;15.68;;;;;;;5.02;80.23;100733.75;1770410;79;21544;-69
2024/03/15 06:28:27;;;;;;;30.80;15.88;;;;;;;5.03;80.21;100730.02;1775109;81;21030;-69
2024/03/15 06:30:56;;;;;;;26.60;15.88;;;;;;;5.04;80.29;100735.30;1768000;80;21035;-70
2024/03/15 06:33:31;;;;;;;24.67;15.98;;;;;;;5.06;80.59;100727.00;1774879;79;21003;-71
2024/03/15 06:36:00;;;;;;;28.77;15.45;;;;;;;5.08;80.55;100734.48;1779773;79;21055;-70
2024/03/15 06:38:30;;;;;;;26.77;15.60;;;;;;;5.08;80.48;100733.13;1784442;79;21023;-69
2024/03/15 06:41:13;;;;;;;29.10;15.13;;;;;;;5.11;80.64;100735.54;1769064;80;21067;-71
2024/03/15 06:44:04;;;;;;;30.12;16.27;;;;;;;5.11;80.55;100734.18;1775615;80;21046;-70
2024/03/15 06:46:42;;;;;;;27.07;15.93;;;;;;;5.08;80.64;100736.70;1774865;80;21091;-69
2024/03/15 06:49:12;;;;;;;28.85;16.80;;;;;;;5.09;80.79;100744.34;1766106;80;21487;-70
2024/03/15 06:54:23;;;;;;;33.80;19.65;;;;;;;5.14;81.09;100746.59;1769313;80;21007;-70
2024/03/15 06:56:52;;;;;;;31.73;17.95;;;;;;;5.19;81.07;100746.98;1769658;79;21083;-71
2024/03/15 06:59:21;;;;;;;31.48;18.10;;;;;;;5.23;80.91;100746.55;1766494;81;21059;-71
2024/03/15 07:01:50;;;;;;;35.00;18.90;;;;;;;5.25;80.86;100740.47;1776506;81;21003;-71
2024/03/15 07:04:20;;;;;;;35.95;18.90;;;;;;;5.26;80.86;100747.60;1772979;81;21423;-70
2024/03/15 07:06:49;;;;;;;35.70;19.87;;;;;;;5.27;80.82;100743.88;1775352;80;21062;-70
2024/03/15 07:09:19;;;;;;;38.48;21.52;;;;;;;5.27;80.70;100745.74;1774956;81;21507;-71
2024/03/15 07:11:48;;;;;;;35.15;21.33;;;;;;;5.31;80.64;100742.56;1775047;81;21485;-70
2024/03/15 07:14:18;;;;;;;45.15;22.70;;;;;;;5.33;80.54;100747.84;1774962;79;21015;-71
2024/03/15 07:16:48;;;;;;;36.73;20.25;;;;;;;5.30;80.62;100754.94;1775192;81;21501;-70
2024/03/15 07:19:21;;;;;;;42.95;22.02;;;;;;;5.33;80.76;100751.41;1776575;79;21062;-71
2024/03/15 07:21:50;;;;;;;37.35;20.60;;;;;;;5.35;80.76;100752.11;1773645;79;21094;-71
2024/03/15 07:24:20;;;;;;;37.65;20.23;;;;;;;5.42;80.67;100749.62;1774947;81;21525;-70
2024/03/15 07:26:49;;;;;;;43.83;20.60;;;;;;;5.47;80.56;100755.44;1775013;81;21097;-70
2024/03/15 07:29:18;;;;;;;38.45;21.12;;;;;;;5.52;80.42;100751.75;1778706;80;21066;-71
2024/03/15 07:31:47;;;;;;;39.15;21.25;;;;;;;5.58;80.27;100744.83;1775120;80;21031;-71
2024/03/15 07:34:16;;;;;;;41.05;22.13;;;;;;;5.62;80.22;100748.94;1775038;80;21023;-71
2024/03/15 07:36:46;;;;;;;38.95;20.92;;;;;;;5.66;80.16;100747.62;1776269;80;21086;-71
2024/03/15 07:39:16;;;;;;;40.25;22.98;;;;;;;5.74;79.95;100749.89;1776357;80;21042;-71
2024/03/15 07:41:45;;;;;;;43.45;22.73;;;;;;;5.83;79.69;100752.17;1774941;80;21447;-71
2024/03/15 07:44:14;;;;;;;38.75;21.90;;;;;;;5.94;79.34;100750.61;1776319;80;21434;-71
2024/03/15 07:46:46;;;;;;;37.60;21.77;;;;;;;6.06;78.80;100752.56;1778875;80;21520;-71
2024/03/15 07:49:15;;;;;;;41.02;23.67;;;;;;;6.13;78.34;100750.05;1781819;79;21035;-70
2024/03/15 07:51:46;;;;;;;40.17;22.27;;;;;;;6.20;77.69;100756.05;1776706;79;21478;-70
2024/03/15 07:54:15;;;;;;;38.30;21.60;;;;;;;6.26;77.37;100747.75;1774961;79;21027;-71
2024/03/15 07:56:45;;;;;;;36.55;20.65;;;;;;;6.33;77.07;100751.53;1778269;80;21038;-71
2024/03/15 07:59:14;;;;;;;45.60;23.67;;;;;;;6.39;76.92;100752.25;1777266;80;21030;-69
2024/03/15 08:01:43;;;;;;;41.40;21.50;;;;;;;6.47;76.81;100747.34;1774900;80;21466;-69
2024/03/15 08:04:14;;;;;;;37.63;22.40;;;;;;;6.55;76.42;100740.11;1774555;81;21058;-71
2024/03/15 08:06:44;;;;;;;37.73;21.73;;;;;;;6.62;75.97;100744.39;1774296;79;21532;-69
2024/03/15 08:09:15;;;;;;;37.55;21.68;;;;;;;6.61;75.36;100741.33;1753371;81;21436;-69
2024/03/15 08:11:44;;;;;;;44.40;22.25;;;;;;;6.56;74.78;100738.23;1775101;81;21021;-70
2024/03/15 08:14:13;;;;;;;48.23;24.20;;;;;;;6.53;74.90;100746.73;1773987;79;21011;-70
2024/03/15 08:16:44;;;;;;;42.78;21.23;;;;;;;6.54;74.96;100735.68;1774139;79;21027;-70
2024/03/15 08:19:15;;;;;;;40.43;21.20;;;;;;;6.57;74.89;100739.95;1776390;80;21023;-70
2024/03/15 08:21:45;;;;;;;42.45;22.67;;;;;;;6.58;74.83;100738.93;1774991;81;21070;-69
2024/03/15 08:24:14;;;;;;;36.88;20.75;;;;;;;6.61;74.93;100735.87;1775935;80;21003;-70
2024/03/15 08:26:43;;;;;;;47.35;22.93;;;;;;;6.66;74.80;100743.90;1774918;80;21051;-69
2024/03/15 08:29:13;;;;;;;49.83;24.32;;;;;;;6.64;74.64;100737.77;1775243;79;21003;-70
2024/03/15 08:31:42;;;;;;;45.65;23.02;;;;;;;6.63;74.68;100736.06;1779757;80;21089;-71
2024/03/15 08:34:11;;;;;;;39.27;22.65;;;;;;;6.65;74.73;100734.02;1774358;80;21063;-69
2024/03/15 08:36:40;;;;;;;42.53;23.60;;;;;;;6.63;74.71;100731.97;1763333;81;21003;-69
2024/03/15 08:39:12;;;;;;;54.18;24.65;;;;;;;6.65;74.65;100734.02;1768836;79;21043;-69
2024/03/15 08:41:42;;;;;;;41.30;23.10;;;;;;;6.65;74.71;100742.70;1767010;80;21058;-69
2024/03/15 08:44:13;;;;;;;50.23;24.55;;;;;;;6.70;74.72;100735.40;1778452;79;21044;-69
2024/03/15 08:46:43;;;;;;;46.50;23.57;;;;;;;6.73;74.78;100731.84;1774965;80;21042;-69
2024/03/15 08:49:15;;;;;;;38.88;22.07;;;;;;;6.80;74.86;100731.52;1776654;80;21003;-69
2024/03/15 08:51:48;;;;;;;44.88;23.42;;;;;;;6.87;74.66;100736.65;1774293;79;20992;-70
2024/03/15 08:54:15;;;;;;;42.40;23.30;;;;;;;6.86;74.21;100737.67;1775654;80;21066;-69
2024/03/15 08:56:44;;;;;;;39.08;21.62;;;;;;;6.86;74.21;100731.37;1765402;79;21067;-72
2024/03/15 08:59:14;;;;;;;37.15;20.50;;;;;;;6.88;74.19;100738.36;1763648;80;21529;-73
2024/03/15 09:01:47;;;;;;;38.58;22.05;;;;;;;6.91;75.60;100735.30;1754861;80;21484;-75
2024/03/15 09:04:24;;;;;;;42.38;23.00;;;;;;;7.03;75.58;100732.27;1753265;81;21098;-75
2024/03/15 09:06:54;;;;;;;42.80;21.75;;;;;;;7.06;74.96;100732.78;1761618;79;21057;-75
2024/03/15 09:09:31;;;;;;;41.33;22.02;;;;;;;7.09;74.44;100734.32;1739188;81;21485;-75
2024/03/15 09:11:53;;;;;;;40.08;22.27;;;;;;;7.13;74.82;100727.52;1735560;81;21196;-78
2024/03/15 09:14:24;;;;;;;34.92;20.57;;;;;;;7.16;74.29;100729.94;1738162;81;21117;-80
2024/03/15 09:16:54;;;;;;;36.53;20.82;;;;;;;7.17;73.99;100727.05;1776024;81;21095;-80
2024/03/15 09:19:23;;;;;;;37.08;20.57;;;;;;;7.19;73.68;100733.19;1744381;80;21202;-80
2024/03/15 09:21:54;;;;;;;37.15;20.75;;;;;;;7.18;73.03;100730.11;1769185;80;21072;-80
2024/03/15 09:24:23;;;;;;;38.40;21.05;;;;;;;7.13;72.94;100727.01;1764675;81;21057;-77
2024/03/15 09:26:52;;;;;;;37.10;20.97;;;;;;;7.13;73.08;100734.33;1739320;81;21090;-76
2024/03/15 09:29:22;;;;;;;38.15;20.60;;;;;;;7.14;72.91;100727.34;1732956;82;21059;-74
2024/03/15 09:31:54;;;;;;;36.03;20.10;;;;;;;7.13;72.86;100721.55;1707497;83;21589;-75
2024/03/15 09:34:24;;;;;;;37.80;21.20;;;;;;;7.11;72.98;100723.59;1708211;82;21083;-76
2024/03/15 09:36:55;;;;;;;42.60;21.77;;;;;;;7.14;72.79;100721.90;1701067;83;21086;-76
2024/03/15 09:39:26;;;;;;;36.48;21.10;;;;;;;7.13;72.88;100725.64;1740491;81;21056;-76
2024/03/15 09:41:55;;;;;;;37.08;21.27;;;;;;;7.17;73.55;100732.50;1733031;81;21490;-77
2024/03/15 09:44:24;;;;;;;40.45;21.85;;;;;;;7.23;73.20;100738.64;1736239;81;21101;-77
2024/03/15 09:46:53;;;;;;;41.95;22.60;;;;;;;7.26;72.87;100732.00;1733698;81;21062;-76
2024/03/15 09:49:21;;;;;;;41.13;21.93;;;;;;;7.25;72.73;100724.84;1753287;80;21639;-76
2024/03/15 09:51:52;;;;;;;44.25;22.90;;;;;;;7.23;72.67;100727.73;1738348;81;21347;-76
2024/03/15 09:54:21;;;;;;;39.45;21.77;;;;;;;7.23;72.63;100733.19;1735840;81;21485;-77
2024/03/15 09:56:50;;;;;;;40.45;22.07;;;;;;;7.23;72.39;100731.83;1736484;81;21101;-78
2024/03/15 09:59:24;;;;;;;39.25;22.02;;;;;;;7.18;72.31;100728.75;1737826;81;21076;-79
2024/03/15 10:01:53;;;;;;;43.98;21.85;;;;;;;7.17;72.56;100720.75;1735364;81;21147;-80
2024/03/15 10:04:22;;;;;;;42.30;21.95;;;;;;;7.17;72.81;100724.32;1759498;80;21061;-79
2024/03/15 10:06:51;;;;;;;38.78;21.37;;;;;;;7.25;73.00;100722.97;1746840;81;21048;-79
2024/03/15 10:09:23;;;;;;;42.98;22.10;;;;;;;7.35;73.06;100720.59;1768074;80;21086;-78
2024/03/15 10:11:50;;;;;;;41.33;21.90;;;;;;;7.42;72.94;100721.63;1771413;79;21093;-80
2024/03/15 10:14:20;;;;;;;49.55;24.63;;;;;;;7.51;72.50;100727.42;1773631;81;21046;-80
2024/03/15 10:16:49;;;;;;;43.83;23.80;;;;;;;7.56;72.19;100725.03;1772198;79;21090;-79
2024/03/15 10:19:19;;;;;;;54.45;25.88;;;;;;;7.61;72.05;100722.65;1776279;79;21062;-80
2024/03/15 10:21:48;;;;;;;48.73;24.87;;;;;;;7.69;72.05;100724.52;1775398;81;21070;-78
2024/03/15 10:24:17;;;;;;;45.67;24.37;;;;;;;7.76;71.90;100722.30;1773406;81;21109;-79
2024/03/15 10:26:47;;;;;;;51.88;26.30;;;;;;;7.80;72.05;100721.45;1775331;80;21074;-80
2024/03/15 10:29:16;;;;;;;45.20;23.05;;;;;;;7.86;71.67;100728.97;1747966;81;21030;-79
2024/03/15 10:31:45;;;;;;;46.37;25.80;;;;;;;7.92;71.72;100726.41;1773076;79;21078;-79
2024/03/15 10:34:14;;;;;;;44.15;24.47;;;;;;;7.92;71.17;100720.09;1774484;80;21074;-80
2024/03/15 10:36:43;;;;;;;43.55;24.20;;;;;;;7.90;70.75;100717.55;1775964;79;21493;-83
2024/03/15 10:39:13;;;;;;;48.80;26.87;;;;;;;7.87;70.49;100717.89;1776912;79;21054;-80
2024/03/15 10:41:44;;;;;;;44.53;26.00;;;;;;;7.86;70.46;100723.00;1775269;81;21034;-80
2024/03/15 10:44:15;;;;;;;51.45;27.22;;;;;;;7.83;70.79;100719.25;1774549;81;21026;-81
2024/03/15 10:46:44;;;;;;;47.23;27.25;;;;;;;7.83;70.88;100718.41;1777637;79;21081;-81
2024/03/15 10:49:14;;;;;;;49.60;26.55;;;;;;;7.80;70.78;100720.97;1778549;80;21042;-80
2024/03/15 10:51:45;;;;;;;48.78;27.17;;;;;;;7.79;70.97;100717.86;1778460;80;21055;-80
2024/03/15 10:54:15;;;;;;;53.10;27.48;;;;;;;7.83;70.85;100720.62;1767889;80;20999;-79
2024/03/15 10:56:46;;;;;;;47.30;26.35;;;;;;;7.84;70.75;100720.11;1745461;81;21078;-80
2024/03/15 10:59:15;;;;;;;46.90;25.70;;;;;;;7.81;70.55;100718.58;1754895;79;21074;-82
2024/03/15 11:01:44;;;;;;;47.20;26.17;;;;;;;7.78;70.72;100720.25;1767723;80;21051;-81
2024/03/15 11:04:14;;;;;;;48.92;26.80;;;;;;;7.79;70.69;100719.23;1751915;80;21054;-81
2024/03/15 11:06:46;;;;;;;50.50;26.37;;;;;;;7.77;70.64;100718.55;1748067;81;21166;-80
2024/03/15 11:09:22;;;;;;;47.90;27.42;;;;;;;7.74;70.72;100713.44;1784285;79;21083;-79
2024/03/15 11:12:00;;;;;;;52.33;27.45;;;;;;;7.71;70.86;100711.05;1766852;81;21015;-80
2024/03/15 11:14:36;;;;;;;49.13;27.02;;;;;;;7.70;71.07;100715.31;1770321;79;21065;-80
2024/03/15 11:17:06;;;;;;;50.08;27.58;;;;;;;7.67;71.24;100710.20;1776754;80;21029;-80
2024/03/15 11:19:44;;;;;;;52.60;28.20;;;;;;;7.66;71.44;100709.86;1764203;80;21083;-81
2024/03/15 11:22:22;;;;;;;51.73;27.95;;;;;;;7.67;71.52;100708.84;1741624;80;21503;-81
2024/03/15 11:24:51;;;;;;;50.45;27.62;;;;;;;7.69;71.58;100704.06;1788564;79;21030;-81
2024/03/15 11:27:21;;;;;;;54.85;27.67;;;;;;;7.74;71.72;100705.77;1766300;80;21035;-81
2024/03/15 11:29:56;;;;;;;50.08;27.42;;;;;;;7.80;71.69;100706.44;1744139;82;21054;-80
2024/03/15 11:32:25;;;;;;;45.70;26.77;;;;;;;7.84;71.61;100710.56;1715235;81;21050;-79